createdAt,value
2022-08-25T00:00:00.322Z,0.00
2022-08-25T00:00:54.307Z,0.00
2022-08-25T00:01:54.295Z,0.00
2022-08-25T00:02:55.937Z,0.00
2022-08-25T00:03:54.274Z,0.00
2022-08-25T00:04:54.264Z,0.00
2022-08-25T00:05:54.388Z,0.00
2022-08-25T00:06:54.244Z,0.00
2022-08-25T00:07:54.238Z,0.00
2022-08-25T00:08:54.225Z,0.00
2022-08-25T00:09:54.211Z,0.00
2022-08-25T00:11:03.112Z,0.00
2022-08-25T00:11:55.434Z,0.00
2022-08-25T00:12:54.190Z,0.00
2022-08-25T00:13:54.173Z,0.00
2022-08-25T00:14:54.163Z,0.00
2022-08-25T00:15:54.194Z,0.00
2022-08-25T00:17:00.163Z,0.00
2022-08-25T00:17:54.134Z,0.00
2022-08-25T00:18:54.121Z,0.00
2022-08-25T00:19:54.110Z,0.00
2022-08-25T00:20:54.098Z,0.00
2022-08-25T00:21:54.291Z,0.00
2022-08-25T00:22:54.081Z,0.00
2022-08-25T00:23:54.071Z,0.00
2022-08-25T00:24:54.061Z,0.00
2022-08-25T00:25:54.046Z,0.00
2022-08-25T00:26:54.035Z,0.00
2022-08-25T00:27:54.026Z,0.00
2022-08-25T00:28:54.206Z,0.00
2022-08-25T00:29:55.047Z,0.00
2022-08-25T00:30:54.070Z,0.00
2022-08-25T00:31:53.986Z,0.00
2022-08-25T00:32:57.151Z,0.00
2022-08-25T00:33:59.978Z,0.00
2022-08-25T00:34:53.956Z,0.00
2022-08-25T00:35:53.945Z,0.00
2022-08-25T00:36:53.938Z,0.00
2022-08-25T00:37:53.924Z,0.00
2022-08-25T00:38:53.909Z,0.00
2022-08-25T00:39:53.944Z,0.00
2022-08-25T00:40:53.889Z,0.00
2022-08-25T00:41:53.883Z,0.00
2022-08-25T00:42:59.875Z,0.00
2022-08-25T00:43:59.864Z,0.00
2022-08-25T00:45:00.634Z,0.00
2022-08-25T00:45:53.884Z,0.00
2022-08-25T00:46:53.824Z,0.00
2022-08-25T00:47:53.816Z,0.00
2022-08-25T00:48:53.809Z,0.00
2022-08-25T00:49:53.791Z,0.00
2022-08-25T00:50:53.787Z,0.00
2022-08-25T00:51:53.774Z,0.00
2022-08-25T00:52:53.763Z,0.00
2022-08-25T00:53:53.750Z,0.00
2022-08-25T00:54:53.744Z,0.00
2022-08-25T00:55:53.729Z,0.00
2022-08-25T00:56:53.718Z,0.00
2022-08-25T00:57:53.916Z,0.00
2022-08-25T00:58:53.705Z,0.00
2022-08-25T00:59:53.689Z,0.00
2022-08-25T01:00:53.879Z,0.00
2022-08-25T01:01:54.084Z,0.00
2022-08-25T01:02:53.764Z,0.00
2022-08-25T01:03:53.848Z,0.00
2022-08-25T01:04:53.638Z,0.00
2022-08-25T01:05:53.627Z,0.00
2022-08-25T01:06:53.615Z,0.00
2022-08-25T01:07:59.662Z,0.00
2022-08-25T01:08:53.596Z,0.00
2022-08-25T01:09:53.588Z,0.00
2022-08-25T01:10:53.573Z,0.00
2022-08-25T01:11:53.562Z,0.00
2022-08-25T01:12:53.556Z,0.00
2022-08-25T01:13:53.558Z,0.00
2022-08-25T01:14:53.538Z,0.00
2022-08-25T01:15:53.551Z,0.00
2022-08-25T01:16:54.051Z,0.00
2022-08-25T01:17:53.505Z,0.00
2022-08-25T01:18:53.496Z,0.00
2022-08-25T01:19:53.483Z,0.00
2022-08-25T01:20:53.467Z,0.00
2022-08-25T01:21:53.459Z,0.00
2022-08-25T01:22:55.420Z,0.00
2022-08-25T01:23:53.438Z,0.00
2022-08-25T01:24:53.428Z,0.00
2022-08-25T01:26:30.177Z,0.00
2022-08-25T01:27:28.145Z,0.00
2022-08-25T01:28:28.131Z,0.00
2022-08-25T01:29:28.120Z,0.00
2022-08-25T01:30:28.113Z,0.00
2022-08-25T01:31:28.172Z,0.00
2022-08-25T01:32:28.090Z,0.00
2022-08-25T01:33:28.080Z,0.00
2022-08-25T01:34:34.077Z,0.00
2022-08-25T01:35:28.060Z,0.00
2022-08-25T01:36:34.053Z,0.00
2022-08-25T01:37:28.043Z,0.00
2022-08-25T01:38:28.025Z,0.00
2022-08-25T01:39:28.018Z,0.00
2022-08-25T01:40:28.120Z,0.00
2022-08-25T01:41:27.992Z,0.00
2022-08-25T01:42:27.982Z,0.00
2022-08-25T01:43:27.973Z,0.00
2022-08-25T01:44:27.959Z,0.00
2022-08-25T01:45:27.952Z,0.00
2022-08-25T01:46:28.020Z,0.00
2022-08-25T01:47:27.928Z,0.00
2022-08-25T01:48:27.923Z,0.00
2022-08-25T01:49:27.908Z,0.00
2022-08-25T01:50:27.894Z,0.00
2022-08-25T01:51:27.884Z,0.00
2022-08-25T01:52:27.874Z,0.00
2022-08-25T01:53:27.862Z,0.00
2022-08-25T01:54:27.893Z,0.00
2022-08-25T01:55:27.841Z,0.00
2022-08-25T01:56:28.031Z,0.00
2022-08-25T01:57:28.020Z,0.00
2022-08-25T01:58:27.812Z,0.00
2022-08-25T01:59:27.804Z,0.00
2022-08-25T02:00:27.802Z,0.00
2022-08-25T02:01:27.900Z,0.00
2022-08-25T02:02:28.051Z,0.00
2022-08-25T02:03:27.752Z,0.00
2022-08-25T02:04:27.745Z,0.00
2022-08-25T02:05:27.739Z,0.00
2022-08-25T02:06:30.070Z,0.00
2022-08-25T02:07:27.721Z,0.00
2022-08-25T02:08:27.905Z,0.00
2022-08-25T02:09:27.694Z,0.00
2022-08-25T02:10:27.681Z,0.00
2022-08-25T02:11:27.669Z,0.00
2022-08-25T02:12:27.657Z,0.00
2022-08-25T02:13:31.391Z,0.00
2022-08-25T02:14:27.837Z,0.00
2022-08-25T02:15:27.629Z,0.00
2022-08-25T02:16:27.678Z,0.00
2022-08-25T02:17:27.617Z,0.00
2022-08-25T02:18:27.597Z,0.00
2022-08-25T02:19:27.580Z,0.00
2022-08-25T02:20:27.569Z,0.00
2022-08-25T02:21:27.558Z,0.00
2022-08-25T02:22:27.552Z,0.00
2022-08-25T02:23:27.537Z,0.00
2022-08-25T02:24:27.532Z,0.00
2022-08-25T02:25:27.515Z,0.00
2022-08-25T02:26:33.527Z,0.00
2022-08-25T02:27:27.491Z,0.00
2022-08-25T02:28:27.493Z,0.00
2022-08-25T02:29:27.477Z,0.00
2022-08-25T02:30:27.547Z,0.00
2022-08-25T02:31:27.863Z,0.00
2022-08-25T02:32:27.534Z,0.00
2022-08-25T02:33:27.430Z,0.00
2022-08-25T02:34:27.419Z,0.00
2022-08-25T02:35:27.411Z,0.00
2022-08-25T02:36:27.402Z,0.00
2022-08-25T02:37:27.386Z,0.00
2022-08-25T02:38:27.377Z,0.00
2022-08-25T02:39:27.365Z,0.00
2022-08-25T02:40:27.407Z,0.00
2022-08-25T02:41:31.000Z,0.00
2022-08-25T02:42:27.336Z,0.00
2022-08-25T02:43:27.320Z,0.00
2022-08-25T02:44:27.314Z,0.00
2022-08-25T02:45:27.304Z,0.00
2022-08-25T02:46:27.375Z,0.00
2022-08-25T02:47:27.368Z,0.00
2022-08-25T02:48:27.267Z,0.00
2022-08-25T02:49:27.254Z,0.00
2022-08-25T02:50:27.248Z,0.00
2022-08-25T02:51:27.236Z,0.00
2022-08-25T02:52:27.232Z,0.00
2022-08-25T02:53:27.215Z,0.00
2022-08-25T02:54:33.210Z,0.00
2022-08-25T02:55:27.190Z,0.00
2022-08-25T02:56:27.187Z,0.00
2022-08-25T02:57:27.172Z,0.00
2022-08-25T02:58:27.169Z,0.00
2022-08-25T02:59:27.150Z,0.00
2022-08-25T03:00:29.243Z,0.00
2022-08-25T03:01:28.706Z,0.00
2022-08-25T03:02:27.316Z,0.00
2022-08-25T03:03:27.110Z,0.00
2022-08-25T03:04:27.105Z,0.00
2022-08-25T03:05:27.085Z,0.00
2022-08-25T03:06:27.071Z,0.00
2022-08-25T03:07:27.265Z,0.00
2022-08-25T03:08:27.053Z,0.00
2022-08-25T03:09:27.042Z,0.00
2022-08-25T03:10:27.029Z,0.00
2022-08-25T03:11:27.022Z,0.00
2022-08-25T03:12:27.010Z,0.00
2022-08-25T03:13:27.003Z,0.00
2022-08-25T03:14:27.188Z,0.00
2022-08-25T03:15:26.982Z,0.00
2022-08-25T03:16:27.923Z,0.00
2022-08-25T03:17:26.960Z,0.00
2022-08-25T03:18:26.999Z,0.00
2022-08-25T03:19:27.135Z,0.00
2022-08-25T03:20:26.937Z,0.00
2022-08-25T03:21:26.954Z,0.00
2022-08-25T03:22:26.922Z,0.00
2022-08-25T03:23:26.892Z,0.00
2022-08-25T03:24:26.900Z,0.00
2022-08-25T03:25:26.866Z,0.00
2022-08-25T03:26:26.861Z,0.00
2022-08-25T03:27:26.851Z,0.00
2022-08-25T03:28:30.158Z,0.00
2022-08-25T03:29:28.881Z,0.00
2022-08-25T03:30:26.819Z,0.00
2022-08-25T03:31:26.910Z,0.00
2022-08-25T03:32:26.800Z,0.00
2022-08-25T03:33:26.782Z,0.00
2022-08-25T03:34:26.772Z,0.00
2022-08-25T03:35:26.977Z,0.00
2022-08-25T03:36:26.752Z,0.00
2022-08-25T03:37:26.743Z,0.00
2022-08-25T03:38:26.733Z,0.00
2022-08-25T03:39:26.722Z,0.00
2022-08-25T03:40:26.856Z,0.00
2022-08-25T03:41:28.032Z,0.00
2022-08-25T03:42:26.717Z,0.00
2022-08-25T03:43:26.678Z,0.00
2022-08-25T03:44:26.662Z,0.00
2022-08-25T03:45:26.724Z,0.00
2022-08-25T03:46:26.647Z,0.00
2022-08-25T03:47:32.640Z,0.00
2022-08-25T03:48:26.622Z,0.00
2022-08-25T03:49:26.613Z,0.00
2022-08-25T03:50:26.605Z,0.00
2022-08-25T03:51:26.589Z,0.00
2022-08-25T03:52:26.584Z,0.00
2022-08-25T03:53:26.570Z,0.00
2022-08-25T03:54:26.557Z,0.00
2022-08-25T03:55:26.545Z,0.00
2022-08-25T03:56:26.607Z,0.00
2022-08-25T03:57:26.525Z,0.00
2022-08-25T03:58:26.521Z,0.00
2022-08-25T03:59:26.502Z,0.00
2022-08-25T04:00:26.491Z,0.00
2022-08-25T04:01:26.963Z,0.00
2022-08-25T04:02:26.547Z,0.00
2022-08-25T04:03:26.465Z,0.00
2022-08-25T04:04:26.455Z,0.00
2022-08-25T04:05:26.757Z,0.00
2022-08-25T04:06:26.436Z,0.00
2022-08-25T04:07:26.366Z,0.00
2022-08-25T04:08:26.373Z,0.00
2022-08-25T04:09:26.347Z,0.00
2022-08-25T04:10:26.338Z,0.00
2022-08-25T04:11:26.383Z,0.00
2022-08-25T04:12:26.332Z,0.00
2022-08-25T04:13:26.302Z,0.00
2022-08-25T04:14:32.296Z,0.00
2022-08-25T04:15:28.108Z,0.00
2022-08-25T04:16:26.340Z,0.00
2022-08-25T04:17:26.262Z,0.00
2022-08-25T04:18:26.448Z,0.00
2022-08-25T04:19:26.236Z,0.00
2022-08-25T04:20:26.237Z,0.00
2022-08-25T04:21:26.219Z,0.00
2022-08-25T04:22:26.205Z,0.00
2022-08-25T04:23:26.195Z,0.00
2022-08-25T04:24:26.185Z,0.00
2022-08-25T04:25:26.170Z,0.00
2022-08-25T04:26:26.163Z,0.00
2022-08-25T04:27:26.149Z,0.00
2022-08-25T04:28:26.146Z,0.00
2022-08-25T04:29:26.127Z,0.00
2022-08-25T04:30:26.127Z,0.00
2022-08-25T04:31:26.176Z,0.00
2022-08-25T04:32:26.099Z,0.00
2022-08-25T04:33:26.094Z,0.00
2022-08-25T04:34:30.444Z,0.00
2022-08-25T04:35:26.064Z,0.00
2022-08-25T04:36:32.062Z,0.00
2022-08-25T04:37:26.043Z,0.00
2022-08-25T04:38:26.032Z,0.00
2022-08-25T04:39:26.022Z,0.00
2022-08-25T04:40:29.008Z,5.62
2022-08-25T04:41:26.003Z,5.62
2022-08-25T04:42:26.000Z,5.62
2022-08-25T04:43:25.984Z,5.62
2022-08-25T04:44:25.971Z,5.62
2022-08-25T04:45:26.080Z,5.62
2022-08-25T04:46:31.955Z,5.62
2022-08-25T04:47:31.949Z,5.62
2022-08-25T04:48:25.927Z,5.62
2022-08-25T04:49:25.915Z,11.25
2022-08-25T04:50:25.907Z,11.25
2022-08-25T04:51:25.896Z,11.25
2022-08-25T04:52:25.882Z,11.25
2022-08-25T04:53:25.871Z,11.25
2022-08-25T04:54:25.860Z,11.25
2022-08-25T04:55:25.851Z,11.25
2022-08-25T04:56:25.841Z,11.25
2022-08-25T04:57:25.828Z,16.87
2022-08-25T04:58:25.826Z,16.87
2022-08-25T04:59:29.502Z,16.87
2022-08-25T05:00:25.798Z,16.87
2022-08-25T05:01:25.872Z,16.87
2022-08-25T05:02:25.776Z,22.50
2022-08-25T05:03:25.762Z,22.50
2022-08-25T05:04:28.483Z,22.50
2022-08-25T05:05:25.755Z,22.50
2022-08-25T05:06:31.750Z,22.50
2022-08-25T05:07:25.722Z,28.12
2022-08-25T05:08:25.714Z,28.12
2022-08-25T05:09:32.028Z,28.12
2022-08-25T05:10:31.698Z,28.12
2022-08-25T05:11:25.682Z,28.12
2022-08-25T05:12:25.675Z,28.12
2022-08-25T05:13:27.922Z,33.75
2022-08-25T05:14:26.543Z,33.75
2022-08-25T05:15:25.642Z,33.75
2022-08-25T05:16:25.672Z,33.75
2022-08-25T05:17:25.621Z,33.75
2022-08-25T05:18:25.608Z,33.75
2022-08-25T05:19:25.597Z,39.37
2022-08-25T05:20:25.581Z,39.37
2022-08-25T05:21:25.577Z,39.37
2022-08-25T05:22:25.573Z,39.37
2022-08-25T05:23:25.552Z,39.37
2022-08-25T05:24:25.538Z,39.37
2022-08-25T05:25:25.528Z,45.00
2022-08-25T05:26:25.517Z,45.00
2022-08-25T05:27:25.505Z,45.00
2022-08-25T05:28:25.495Z,45.00
2022-08-25T05:29:25.487Z,45.00
2022-08-25T05:30:25.475Z,45.00
2022-08-25T05:31:25.514Z,50.62
2022-08-25T05:32:25.456Z,50.62
2022-08-25T05:33:25.440Z,50.62
2022-08-25T05:34:25.435Z,50.62
2022-08-25T05:35:25.427Z,50.62
2022-08-25T05:36:25.408Z,56.25
2022-08-25T05:37:25.398Z,56.25
2022-08-25T05:38:25.516Z,56.25
2022-08-25T05:39:26.825Z,56.25
2022-08-25T05:40:25.436Z,56.25
2022-08-25T05:41:25.357Z,56.25
2022-08-25T05:42:25.351Z,61.87
2022-08-25T05:43:25.341Z,61.87
2022-08-25T05:44:25.325Z,61.87
2022-08-25T05:45:25.386Z,61.87
2022-08-25T05:46:25.310Z,61.87
2022-08-25T05:47:25.716Z,61.87
2022-08-25T05:48:25.286Z,67.50
2022-08-25T05:49:27.273Z,67.50
2022-08-25T05:50:25.261Z,67.50
2022-08-25T05:51:25.250Z,67.50
2022-08-25T05:52:25.240Z,67.50
2022-08-25T05:53:25.235Z,67.50
2022-08-25T05:54:25.218Z,67.50
2022-08-25T05:55:25.222Z,67.50
2022-08-25T05:56:25.201Z,67.50
2022-08-25T05:57:25.192Z,67.50
2022-08-25T05:58:25.174Z,73.12
2022-08-25T05:59:25.168Z,73.12
2022-08-25T06:00:25.151Z,73.12
2022-08-25T06:01:25.232Z,78.75
2022-08-25T06:02:25.130Z,78.75
2022-08-25T06:03:25.170Z,84.37
2022-08-25T06:04:25.107Z,84.37
2022-08-25T06:05:25.106Z,84.37
2022-08-25T06:06:25.086Z,84.37
2022-08-25T06:07:25.084Z,84.37
2022-08-25T06:08:25.063Z,84.37
2022-08-25T06:09:25.057Z,90.00
2022-08-25T06:10:25.043Z,90.00
2022-08-25T06:11:25.035Z,90.00
2022-08-25T06:12:25.025Z,90.00
2022-08-25T06:13:27.010Z,90.00
2022-08-25T06:14:25.201Z,90.00
2022-08-25T06:15:30.995Z,95.62
2022-08-25T06:16:25.058Z,95.62
2022-08-25T06:17:24.972Z,95.62
2022-08-25T06:18:25.159Z,95.62
2022-08-25T06:19:30.956Z,95.62
2022-08-25T06:20:25.472Z,101.25
2022-08-25T06:21:24.930Z,101.25
2022-08-25T06:22:25.118Z,101.25
2022-08-25T06:23:30.915Z,101.25
2022-08-25T06:24:24.894Z,101.25
2022-08-25T06:25:24.885Z,101.25
2022-08-25T06:26:24.877Z,101.25
2022-08-25T06:27:24.866Z,101.25
2022-08-25T06:28:24.850Z,106.87
2022-08-25T06:29:24.847Z,101.25
2022-08-25T06:30:28.647Z,106.87
2022-08-25T06:31:24.845Z,106.87
2022-08-25T06:32:24.826Z,106.87
2022-08-25T06:33:24.794Z,106.87
2022-08-25T06:34:24.788Z,106.87
2022-08-25T06:35:24.814Z,112.50
2022-08-25T06:36:24.767Z,112.50
2022-08-25T06:37:25.390Z,112.50
2022-08-25T06:38:24.752Z,112.50
2022-08-25T06:39:24.737Z,118.12
2022-08-25T06:40:24.898Z,118.12
2022-08-25T06:41:24.712Z,118.12
2022-08-25T06:42:26.700Z,118.12
2022-08-25T06:43:24.687Z,118.12
2022-08-25T06:44:24.682Z,118.12
2022-08-25T06:45:24.666Z,123.75
2022-08-25T06:46:35.651Z,123.75
2022-08-25T06:47:25.777Z,123.75
2022-08-25T06:48:24.632Z,123.75
2022-08-25T06:49:24.625Z,129.37
2022-08-25T06:50:24.747Z,129.37
2022-08-25T06:51:24.605Z,129.37
2022-08-25T06:52:29.164Z,129.37
2022-08-25T06:53:24.589Z,135.00
2022-08-25T06:54:24.780Z,135.00
2022-08-25T06:55:24.558Z,135.00
2022-08-25T06:56:24.549Z,135.00
2022-08-25T06:57:24.744Z,140.62
2022-08-25T06:58:24.531Z,140.62
2022-08-25T06:59:24.517Z,140.62
2022-08-25T07:00:30.516Z,140.62
2022-08-25T07:01:25.971Z,146.25
2022-08-25T07:02:24.601Z,146.25
2022-08-25T07:04:24.468Z,151.87
2022-08-25T07:05:33.603Z,151.87
2022-08-25T07:06:25.493Z,157.50
2022-08-25T07:07:24.435Z,157.50
2022-08-25T07:08:24.422Z,157.50
2022-08-25T07:09:24.413Z,163.12
2022-08-25T07:10:24.449Z,163.12
2022-08-25T07:11:24.401Z,163.12
2022-08-25T07:12:24.582Z,168.75
2022-08-25T07:13:24.373Z,168.75
2022-08-25T07:14:24.367Z,168.75
2022-08-25T07:15:24.351Z,168.75
2022-08-25T07:16:29.587Z,168.75
2022-08-25T07:17:26.326Z,174.37
2022-08-25T07:18:24.318Z,174.37
2022-08-25T07:19:24.310Z,174.37
2022-08-25T07:20:30.360Z,174.37
2022-08-25T07:21:25.346Z,180.00
2022-08-25T07:22:24.281Z,180.00
2022-08-25T07:23:24.273Z,180.00
2022-08-25T07:24:24.259Z,185.62
2022-08-25T07:25:24.246Z,185.62
2022-08-25T07:26:37.374Z,191.25
2022-08-25T07:27:25.270Z,191.25
2022-08-25T07:28:24.214Z,191.25
2022-08-25T07:29:32.051Z,196.87
2022-08-25T07:30:25.224Z,196.87
2022-08-25T07:31:29.403Z,196.87
2022-08-25T07:32:24.171Z,202.50
2022-08-25T07:33:24.164Z,202.50
2022-08-25T07:34:24.151Z,208.12
2022-08-25T07:35:24.292Z,208.12
2022-08-25T07:36:24.143Z,208.12
2022-08-25T07:37:47.680Z,213.75
2022-08-25T07:38:25.152Z,213.75
2022-08-25T07:39:24.308Z,225.00
2022-08-25T07:40:24.322Z,219.37
2022-08-25T07:41:24.084Z,219.37
2022-08-25T07:42:24.072Z,225.00
2022-08-25T07:43:24.058Z,225.00
2022-08-25T07:44:24.048Z,230.62
2022-08-25T07:45:24.040Z,230.62
2022-08-25T07:46:30.092Z,230.62
2022-08-25T07:47:24.016Z,236.25
2022-08-25T07:48:24.006Z,236.25
2022-08-25T07:49:23.994Z,241.87
2022-08-25T07:50:24.040Z,241.87
2022-08-25T07:51:24.051Z,241.87
2022-08-25T07:52:23.969Z,241.87
2022-08-25T07:53:23.956Z,241.87
2022-08-25T07:54:23.955Z,247.50
2022-08-25T07:55:24.974Z,247.50
2022-08-25T07:56:29.932Z,253.12
2022-08-25T07:57:23.931Z,253.12
2022-08-25T07:58:23.905Z,253.12
2022-08-25T07:59:29.906Z,258.75
2022-08-25T08:00:24.423Z,258.75
2022-08-25T08:01:23.963Z,264.37
2022-08-25T08:02:24.789Z,264.37
2022-08-25T08:03:44.602Z,270.00
2022-08-25T08:04:24.887Z,270.00
2022-08-25T08:05:24.187Z,270.00
2022-08-25T08:06:24.038Z,275.62
2022-08-25T08:07:23.848Z,275.62
2022-08-25T08:08:24.847Z,275.62
2022-08-25T08:09:23.994Z,281.25
2022-08-25T08:11:23.973Z,281.25
2022-08-25T08:12:23.774Z,286.87
2022-08-25T08:13:23.765Z,286.87
2022-08-25T08:14:23.744Z,292.50
2022-08-25T08:15:23.742Z,292.50
2022-08-25T08:16:29.842Z,292.50
2022-08-25T08:17:23.717Z,292.50
2022-08-25T08:18:23.705Z,298.12
2022-08-25T08:19:23.897Z,298.12
2022-08-25T08:20:23.977Z,298.12
2022-08-25T08:21:23.698Z,303.75
2022-08-25T08:22:23.681Z,303.75
2022-08-25T08:23:23.658Z,303.75
2022-08-25T08:24:40.640Z,309.37
2022-08-25T08:25:27.409Z,309.37
2022-08-25T08:26:36.361Z,309.37
2022-08-25T08:27:24.662Z,315.00
2022-08-25T08:28:23.617Z,315.00
2022-08-25T08:29:23.597Z,315.00
2022-08-25T08:30:25.849Z,320.62
2022-08-25T08:31:23.696Z,320.62
2022-08-25T08:32:36.768Z,320.62
2022-08-25T08:33:24.594Z,326.25
2022-08-25T08:34:29.774Z,326.25
2022-08-25T08:35:23.551Z,326.25
2022-08-25T08:36:29.546Z,331.87
2022-08-25T08:37:23.592Z,337.50
2022-08-25T08:38:29.522Z,337.50
2022-08-25T08:39:23.508Z,343.12
2022-08-25T08:40:24.718Z,348.75
2022-08-25T08:41:23.628Z,354.37
2022-08-25T08:42:29.487Z,354.37
2022-08-25T08:43:23.466Z,354.37
2022-08-25T08:44:23.456Z,360.00
2022-08-25T08:45:23.456Z,365.62
2022-08-25T08:46:26.159Z,365.62
2022-08-25T08:47:23.435Z,365.62
2022-08-25T08:49:06.175Z,365.62
2022-08-25T08:50:06.161Z,365.62
2022-08-25T08:51:06.787Z,365.62
2022-08-25T08:52:06.131Z,365.62
2022-08-25T08:53:06.585Z,365.62
2022-08-25T08:54:15.054Z,365.62
2022-08-25T08:55:07.141Z,371.25
2022-08-25T08:56:06.097Z,371.25
2022-08-25T08:57:06.091Z,371.25
2022-08-25T08:58:06.273Z,371.25
2022-08-25T08:59:06.603Z,371.25
2022-08-25T09:00:06.061Z,371.25
2022-08-25T09:01:12.092Z,376.87
2022-08-25T09:02:06.168Z,376.87
2022-08-25T09:03:07.095Z,376.87
2022-08-25T09:04:06.031Z,382.50
2022-08-25T09:05:06.059Z,382.50
2022-08-25T09:06:06.941Z,382.50
2022-08-25T09:07:06.203Z,388.12
2022-08-25T09:08:06.200Z,388.12
2022-08-25T09:09:06.804Z,393.75
2022-08-25T09:10:05.976Z,393.75
2022-08-25T09:11:05.964Z,399.37
2022-08-25T09:12:11.960Z,399.37
2022-08-25T09:13:11.976Z,399.37
2022-08-25T09:14:05.942Z,405.00
2022-08-25T09:15:12.541Z,410.62
2022-08-25T09:16:05.972Z,410.62
2022-08-25T09:17:05.909Z,416.25
2022-08-25T09:18:05.965Z,416.25
2022-08-25T09:19:05.902Z,421.87
2022-08-25T09:20:05.890Z,427.50
2022-08-25T09:21:07.168Z,433.12
2022-08-25T09:22:33.628Z,444.37
2022-08-25T09:23:06.904Z,450.00
2022-08-25T09:24:05.872Z,455.62
2022-08-25T09:25:08.630Z,461.25
2022-08-25T09:26:05.838Z,466.87
2022-08-25T09:27:05.831Z,472.50
2022-08-25T09:28:06.071Z,472.50
2022-08-25T09:29:16.312Z,478.12
2022-08-25T09:30:07.051Z,478.12
2022-08-25T09:31:05.864Z,483.75
2022-08-25T09:32:05.992Z,483.75
2022-08-25T09:33:05.801Z,489.37
2022-08-25T09:34:05.772Z,495.00
2022-08-25T09:35:11.982Z,500.62
2022-08-25T09:36:05.991Z,506.25
2022-08-25T09:37:05.755Z,506.25
2022-08-25T09:38:05.929Z,511.87
2022-08-25T09:39:07.794Z,523.12
2022-08-25T09:40:11.795Z,528.75
2022-08-25T09:41:05.718Z,534.37
2022-08-25T09:42:05.911Z,545.62
2022-08-25T09:43:05.699Z,556.87
2022-08-25T09:44:05.697Z,573.75
2022-08-25T09:45:05.686Z,590.62
2022-08-25T09:46:05.763Z,601.87
2022-08-25T09:47:05.669Z,630.00
2022-08-25T09:48:05.828Z,663.75
2022-08-25T09:49:05.664Z,703.12
2022-08-25T09:50:05.778Z,753.75
2022-08-25T09:51:11.640Z,832.50
2022-08-25T09:52:05.632Z,961.87
2022-08-25T09:53:17.228Z,1215.00
2022-08-25T09:54:12.653Z,1518.75
2022-08-25T09:55:05.603Z,1861.87
2022-08-25T09:56:05.597Z,2283.75
2022-08-25T09:57:05.589Z,2283.75
2022-08-25T09:58:11.586Z,2210.62
2022-08-25T09:59:05.568Z,2193.75
2022-08-25T10:00:06.657Z,2092.50
2022-08-25T10:01:07.594Z,2075.62
2022-08-25T10:02:11.554Z,2227.50
2022-08-25T10:03:06.292Z,2542.50
2022-08-25T10:04:05.819Z,2851.87
2022-08-25T10:05:05.561Z,3144.37
2022-08-25T10:06:05.514Z,3285.00
2022-08-25T10:07:05.513Z,3240.00
2022-08-25T10:08:11.544Z,3279.37
2022-08-25T10:09:05.886Z,3279.37
2022-08-25T10:10:11.500Z,3296.25
2022-08-25T10:11:11.488Z,3240.00
2022-08-25T10:12:05.470Z,3172.50
2022-08-25T10:14:26.915Z,3150.00
2022-08-25T10:15:30.277Z,3161.25
2022-08-25T10:16:32.160Z,3178.12
2022-08-25T10:17:29.592Z,3200.62
2022-08-25T10:18:26.876Z,3144.37
2022-08-25T10:19:26.871Z,3105.00
2022-08-25T10:20:26.867Z,3065.62
2022-08-25T10:21:26.859Z,3065.62
2022-08-25T10:22:27.051Z,3116.25
2022-08-25T10:23:27.047Z,3172.50
2022-08-25T10:24:26.835Z,3200.62
2022-08-25T10:25:26.827Z,3116.25
2022-08-25T10:26:27.025Z,3144.37
2022-08-25T10:27:28.716Z,3217.50
2022-08-25T10:28:27.007Z,3178.12
2022-08-25T10:29:26.795Z,3071.25
2022-08-25T10:30:26.794Z,3093.75
2022-08-25T10:31:26.809Z,3105.00
2022-08-25T10:32:32.779Z,3093.75
2022-08-25T10:33:26.762Z,3048.75
2022-08-25T10:34:26.757Z,2981.25
2022-08-25T10:35:26.749Z,2975.62
2022-08-25T10:36:32.959Z,2998.12
2022-08-25T10:37:26.754Z,2936.25
2022-08-25T10:38:28.754Z,2868.75
2022-08-25T10:39:36.776Z,3037.50
2022-08-25T10:40:28.043Z,3301.87
2022-08-25T10:41:27.112Z,3729.37
2022-08-25T10:43:09.461Z,2902.50
2022-08-25T10:44:10.884Z,2626.87
2022-08-25T10:45:11.433Z,2598.75
2022-08-25T10:46:09.703Z,2570.62
2022-08-25T10:47:09.424Z,2643.75
2022-08-25T10:48:09.412Z,2694.37
2022-08-25T10:49:09.405Z,2688.75
2022-08-25T10:50:09.400Z,2677.50
2022-08-25T10:51:09.408Z,2835.00
2022-08-25T10:52:09.382Z,2874.37
2022-08-25T10:53:09.377Z,2857.50
2022-08-25T10:54:09.576Z,2908.12
2022-08-25T10:55:09.972Z,2953.12
2022-08-25T10:56:15.369Z,3009.37
2022-08-25T10:57:09.355Z,3031.87
2022-08-25T10:58:09.345Z,2992.50
2022-08-25T10:59:15.351Z,2986.87
2022-08-25T11:00:09.537Z,3020.62
2022-08-25T11:01:09.455Z,3071.25
2022-08-25T11:02:15.332Z,3172.50
2022-08-25T11:03:09.452Z,3200.62
2022-08-25T11:04:09.368Z,3217.50
2022-08-25T11:05:11.364Z,3268.12
2022-08-25T11:06:15.715Z,3116.25
2022-08-25T11:07:09.296Z,2975.62
2022-08-25T11:08:15.301Z,3048.75
2022-08-25T11:09:09.284Z,3262.50
2022-08-25T11:10:09.486Z,3341.25
2022-08-25T11:11:09.270Z,3408.75
2022-08-25T11:12:09.273Z,3386.25
2022-08-25T11:13:11.234Z,3318.75
2022-08-25T11:14:15.265Z,3335.62
2022-08-25T11:15:09.245Z,3386.25
2022-08-25T11:16:19.107Z,3403.12
2022-08-25T11:17:16.887Z,3465.00
2022-08-25T11:18:14.761Z,3532.50
2022-08-25T11:19:15.288Z,3526.87
2022-08-25T11:20:09.423Z,3588.75
2022-08-25T11:21:09.617Z,3684.37
2022-08-25T11:22:09.202Z,3577.50
2022-08-25T11:23:09.198Z,3453.75
2022-08-25T11:24:09.196Z,3555.00
2022-08-25T11:25:09.604Z,3481.87
2022-08-25T11:26:09.185Z,3521.25
2022-08-25T11:27:09.382Z,3751.87
2022-08-25T11:28:09.170Z,3611.25
2022-08-25T11:29:11.519Z,3504.37
2022-08-25T11:30:09.235Z,3493.12
2022-08-25T11:31:09.235Z,3504.37
2022-08-25T11:32:15.156Z,3549.37
2022-08-25T11:33:09.349Z,3515.62
2022-08-25T11:34:09.140Z,3526.87
2022-08-25T11:35:43.827Z,3414.37
2022-08-25T11:36:43.815Z,3386.25
2022-08-25T11:37:43.809Z,3313.12
2022-08-25T11:38:47.950Z,3268.12
2022-08-25T11:39:49.859Z,3240.00
2022-08-25T11:40:50.077Z,3341.25
2022-08-25T11:41:50.004Z,3397.50
2022-08-25T11:42:49.796Z,3307.50
2022-08-25T11:43:43.895Z,3088.12
2022-08-25T11:44:45.625Z,2835.00
2022-08-25T11:45:46.055Z,2992.50
2022-08-25T11:46:43.971Z,3234.37
2022-08-25T11:47:43.965Z,3352.50
2022-08-25T11:48:43.759Z,3431.25
2022-08-25T11:49:44.170Z,3532.50
2022-08-25T11:50:44.790Z,3538.12
2022-08-25T11:51:43.954Z,3481.87
2022-08-25T11:52:43.741Z,3594.37
2022-08-25T11:53:49.759Z,3650.62
2022-08-25T11:54:43.945Z,3560.62
2022-08-25T11:56:26.538Z,3656.25
2022-08-25T11:57:26.521Z,3757.50
2022-08-25T11:58:26.928Z,3633.75
2022-08-25T11:59:26.729Z,3594.37
2022-08-25T12:00:29.129Z,3616.87
2022-08-25T12:01:32.517Z,3605.62
2022-08-25T12:03:05.209Z,3735.00
2022-08-25T12:04:05.247Z,3751.87
2022-08-25T12:05:11.407Z,3650.62
2022-08-25T12:06:50.147Z,3628.12
2022-08-25T12:07:43.921Z,3690.00
2022-08-25T12:08:43.919Z,3673.12
2022-08-25T12:09:49.917Z,3583.12
2022-08-25T12:10:44.106Z,3515.62
2022-08-25T12:11:49.919Z,3684.37
2022-08-25T12:12:43.909Z,3768.75
2022-08-25T12:13:44.101Z,3622.50
2022-08-25T12:14:43.892Z,3712.50
2022-08-25T12:15:43.883Z,3611.25
2022-08-25T12:16:43.950Z,3622.50
2022-08-25T12:17:44.074Z,3616.87
2022-08-25T12:18:45.542Z,3650.62
2022-08-25T12:20:22.771Z,3481.87
2022-08-25T12:22:17.737Z,3228.75
2022-08-25T12:23:17.533Z,3031.87
2022-08-25T12:24:17.519Z,2823.75
2022-08-25T12:25:17.586Z,2964.37
2022-08-25T12:26:23.525Z,3273.75
2022-08-25T12:27:17.712Z,3583.12
2022-08-25T12:28:17.509Z,3628.12
2022-08-25T12:30:08.299Z,3622.50
2022-08-25T12:31:42.946Z,3690.00
2022-08-25T12:32:49.153Z,3729.37
2022-08-25T12:33:42.928Z,3796.87
2022-08-25T12:34:49.347Z,3841.87
2022-08-25T12:35:42.925Z,3898.12
2022-08-25T12:36:44.979Z,3881.25
2022-08-25T12:37:42.923Z,3931.87
2022-08-25T12:38:44.728Z,3853.12
2022-08-25T12:39:43.115Z,3712.50
2022-08-25T12:40:42.902Z,3645.00
2022-08-25T12:41:42.903Z,3532.50
2022-08-25T12:42:42.896Z,3532.50
2022-08-25T12:43:48.902Z,3600.00
2022-08-25T12:44:42.892Z,3526.87
2022-08-25T12:45:49.151Z,3414.37
2022-08-25T12:46:42.884Z,3403.12
2022-08-25T12:47:44.789Z,3465.00
2022-08-25T12:48:42.880Z,3571.87
2022-08-25T12:49:45.078Z,3566.25
2022-08-25T12:50:43.221Z,3453.75
2022-08-25T12:51:48.580Z,3504.37
2022-08-25T12:52:42.863Z,3526.87
2022-08-25T12:53:42.858Z,3487.50